createdAt,value
2018-09-24T00:00:04.637Z,18.87
2018-09-24T00:00:35.717Z,18.13
2018-09-24T00:01:06.831Z,18.23
2018-09-24T00:01:37.941Z,19.37
2018-09-24T00:02:09.088Z,17.23
2018-09-24T00:02:40.185Z,17.70
2018-09-24T00:03:11.292Z,18.37
2018-09-24T00:03:42.426Z,19.07
2018-09-24T00:04:13.558Z,18.33
2018-09-24T00:04:44.681Z,18.67
2018-09-24T00:05:15.855Z,17.90
2018-09-24T00:05:47.030Z,18.50
2018-09-24T00:06:18.135Z,18.70
2018-09-24T00:06:49.255Z,19.00
2018-09-24T00:07:20.383Z,18.40
2018-09-24T00:07:51.495Z,18.20
2018-09-24T00:08:22.629Z,18.27
2018-09-24T00:08:53.771Z,18.50
2018-09-24T00:09:24.869Z,19.23
2018-09-24T00:09:55.988Z,19.47
2018-09-24T00:10:27.186Z,18.47
2018-09-24T00:10:58.291Z,18.30
2018-09-24T00:11:29.419Z,18.47
2018-09-24T00:12:00.528Z,18.53
2018-09-24T00:12:31.703Z,18.87
2018-09-24T00:13:02.883Z,19.00
2018-09-24T00:13:34.051Z,19.10
2018-09-24T00:14:05.194Z,18.83
2018-09-24T00:14:36.360Z,18.33
2018-09-24T00:15:07.517Z,19.47
2018-09-24T00:15:38.648Z,18.97
2018-09-24T00:16:09.753Z,18.17
2018-09-24T00:16:40.882Z,19.70
2018-09-24T00:17:12.010Z,18.43
2018-09-24T00:17:43.139Z,19.10
2018-09-24T00:18:14.270Z,18.13
2018-09-24T00:18:45.398Z,18.13
2018-09-24T00:19:16.502Z,17.93
2018-09-24T00:19:47.690Z,17.47
2018-09-24T00:20:18.869Z,17.90
2018-09-24T00:20:49.967Z,17.87
2018-09-24T00:21:21.075Z,17.87
2018-09-24T00:21:52.236Z,17.97
2018-09-24T00:22:23.357Z,18.33
2018-09-24T00:22:54.517Z,18.23
2018-09-24T00:23:25.651Z,17.57
2018-09-24T00:23:56.761Z,18.87
2018-09-24T00:24:27.905Z,17.65
2018-09-24T00:24:59.089Z,18.23
2018-09-24T00:25:30.210Z,18.43
2018-09-24T00:26:01.327Z,18.50
2018-09-24T00:26:32.439Z,18.13
2018-09-24T00:27:03.556Z,18.40
2018-09-24T00:27:34.685Z,18.40
2018-09-24T00:28:05.827Z,18.73
2018-09-24T00:28:36.967Z,18.23
2018-09-24T00:29:08.100Z,18.87
2018-09-24T00:29:39.211Z,17.47
2018-09-24T00:30:10.336Z,18.30
2018-09-24T00:30:41.540Z,16.90
2018-09-24T00:31:12.672Z,16.60
2018-09-24T00:31:43.867Z,18.17
2018-09-24T00:32:14.982Z,18.30
2018-09-24T00:32:46.095Z,18.00
2018-09-24T00:33:17.273Z,18.50
2018-09-24T00:33:48.441Z,17.63
2018-09-24T00:34:19.564Z,16.70
2018-09-24T00:34:50.680Z,17.33
2018-09-24T00:35:21.821Z,17.82
2018-09-24T00:35:52.973Z,17.30
2018-09-24T00:36:24.127Z,16.57
2018-09-24T00:36:55.248Z,17.77
2018-09-24T00:37:26.374Z,18.00
2018-09-24T00:37:57.526Z,17.97
2018-09-24T00:38:28.741Z,17.77
2018-09-24T00:38:59.916Z,17.23
2018-09-24T00:39:31.059Z,18.30
2018-09-24T00:40:02.193Z,17.97
2018-09-24T00:40:33.334Z,17.53
2018-09-24T00:41:04.500Z,18.90
2018-09-24T00:41:35.647Z,18.10
2018-09-24T00:42:06.753Z,18.00
2018-09-24T00:42:37.928Z,18.20
2018-09-24T00:43:09.050Z,18.23
2018-09-24T00:43:40.207Z,18.93
2018-09-24T00:44:11.316Z,18.27
2018-09-24T00:44:42.426Z,18.40
2018-09-24T00:45:13.549Z,17.10
2018-09-24T00:45:44.784Z,18.40
2018-09-24T00:46:15.908Z,18.00
2018-09-24T00:46:47.059Z,18.07
2018-09-24T00:47:18.155Z,17.77
2018-09-24T00:47:49.323Z,18.27
2018-09-24T00:48:20.561Z,17.98
2018-09-24T00:48:51.725Z,16.80
2018-09-24T00:49:22.908Z,18.00
2018-09-24T00:49:54.029Z,17.07
2018-09-24T00:50:25.142Z,16.40
2018-09-24T00:50:56.243Z,17.33
2018-09-24T00:51:27.381Z,17.30
2018-09-24T00:51:58.555Z,17.50
2018-09-24T00:52:29.675Z,18.00
2018-09-24T00:53:00.782Z,17.17
2018-09-24T00:53:31.962Z,16.73
2018-09-24T00:54:03.082Z,16.47
2018-09-24T00:54:34.208Z,17.45
2018-09-24T00:55:05.347Z,17.70
2018-09-24T00:55:36.535Z,18.33
2018-09-24T00:56:07.682Z,18.57
2018-09-24T00:56:38.802Z,18.15
2018-09-24T00:57:09.931Z,17.77
2018-09-24T00:57:41.050Z,17.85
2018-09-24T00:58:12.179Z,17.83
2018-09-24T00:58:43.299Z,17.40
2018-09-24T00:59:14.393Z,17.07
2018-09-24T00:59:45.570Z,17.90
2018-09-24T01:00:16.750Z,17.40
2018-09-24T01:00:47.870Z,17.40
2018-09-24T01:01:18.991Z,18.32
2018-09-24T01:01:50.163Z,17.98
2018-09-24T01:02:21.375Z,17.75
2018-09-24T01:02:52.500Z,17.05
2018-09-24T01:03:23.628Z,17.85
2018-09-24T01:03:54.763Z,17.48
2018-09-24T01:04:25.942Z,17.43
2018-09-24T01:04:57.129Z,17.77
2018-09-24T01:05:28.293Z,17.75
2018-09-24T01:05:59.416Z,17.45
2018-09-24T01:06:30.644Z,17.20
2018-09-24T01:07:01.827Z,16.67
2018-09-24T01:07:33.012Z,17.95
2018-09-24T01:08:04.119Z,16.93
2018-09-24T01:08:35.304Z,18.20
2018-09-24T01:09:06.427Z,16.95
2018-09-24T01:09:37.542Z,17.57
2018-09-24T01:10:08.700Z,17.77
2018-09-24T01:10:39.803Z,18.03
2018-09-24T01:11:10.929Z,18.30
2018-09-24T01:11:42.110Z,18.43
2018-09-24T01:12:13.269Z,17.85
2018-09-24T01:12:44.382Z,17.77
2018-09-24T01:13:15.554Z,18.00
2018-09-24T01:13:46.699Z,17.53
2018-09-24T01:14:17.817Z,17.52
2018-09-24T01:14:48.979Z,17.97
2018-09-24T01:15:20.137Z,18.25
2018-09-24T01:15:51.272Z,18.07
2018-09-24T01:16:22.400Z,18.48
2018-09-24T01:16:53.558Z,17.33
2018-09-24T01:17:24.684Z,18.93
2018-09-24T01:17:55.827Z,18.55
2018-09-24T01:18:26.967Z,18.23
2018-09-24T01:18:58.093Z,19.42
2018-09-24T01:19:29.196Z,19.05
2018-09-24T01:20:00.356Z,19.23
2018-09-24T01:20:31.558Z,18.63
2018-09-24T01:21:02.678Z,19.00
2018-09-24T01:21:33.784Z,18.50
2018-09-24T01:22:04.960Z,18.37
2018-09-24T01:22:36.076Z,18.80
2018-09-24T01:23:07.242Z,17.42
2018-09-24T01:23:38.348Z,18.05
2018-09-24T01:24:09.483Z,18.50
2018-09-24T01:24:40.609Z,18.95
2018-09-24T01:25:11.784Z,20.25
2018-09-24T01:25:42.926Z,19.23
2018-09-24T01:26:14.088Z,17.30
2018-09-24T01:26:45.186Z,18.50
2018-09-24T01:27:16.353Z,18.77
2018-09-24T01:27:47.469Z,18.35
2018-09-24T01:28:18.587Z,19.25
2018-09-24T01:28:49.691Z,18.60
2018-09-24T01:29:20.812Z,17.92
2018-09-24T01:29:51.923Z,17.37
2018-09-24T01:30:23.057Z,18.62
2018-09-24T01:30:54.180Z,18.77
2018-09-24T01:31:25.333Z,18.30
2018-09-24T01:31:56.450Z,18.37
2018-09-24T01:32:27.551Z,19.43
2018-09-24T01:32:58.684Z,19.17
2018-09-24T01:33:29.868Z,18.67
2018-09-24T01:34:01.111Z,19.57
2018-09-24T01:34:32.287Z,19.40
2018-09-24T01:35:03.404Z,17.15
2018-09-24T01:35:34.518Z,18.93
2018-09-24T01:36:05.700Z,18.48
2018-09-24T01:36:36.814Z,18.40
2018-09-24T01:37:07.923Z,18.00
2018-09-24T01:37:39.052Z,18.63
2018-09-24T01:38:10.171Z,18.90
2018-09-24T01:38:41.324Z,17.80
2018-09-24T01:39:12.432Z,18.63
2018-09-24T01:39:43.592Z,17.87
2018-09-24T01:40:14.748Z,17.77
2018-09-24T01:40:45.862Z,18.32
2018-09-24T01:41:16.994Z,18.98
2018-09-24T01:41:48.171Z,18.45
2018-09-24T01:42:19.303Z,18.30
2018-09-24T01:42:50.448Z,18.40
2018-09-24T01:43:21.553Z,17.82
2018-09-24T01:43:52.715Z,19.00
2018-09-24T01:44:23.837Z,19.37
2018-09-24T01:44:54.985Z,18.93
2018-09-24T01:45:26.093Z,18.65
2018-09-24T01:45:57.252Z,17.57
2018-09-24T01:46:28.379Z,19.00
2018-09-24T01:46:59.487Z,18.57
2018-09-24T01:47:30.603Z,18.80
2018-09-24T01:48:01.722Z,18.50
2018-09-24T01:48:32.864Z,18.65
2018-09-24T01:49:04.033Z,18.30
2018-09-24T01:49:35.188Z,18.23
2018-09-24T01:50:06.335Z,18.45
2018-09-24T01:50:37.481Z,18.23
2018-09-24T01:51:08.595Z,18.33
2018-09-24T01:51:39.707Z,18.83
2018-09-24T01:52:10.838Z,17.17
2018-09-24T01:52:41.986Z,18.50
2018-09-24T01:53:13.206Z,18.48
2018-09-24T01:53:44.311Z,19.33
2018-09-24T01:54:15.494Z,19.45
2018-09-24T01:54:46.607Z,19.10
2018-09-24T01:55:17.742Z,19.85
2018-09-24T01:55:48.915Z,18.95
2018-09-24T01:56:20.014Z,19.02
2018-09-24T01:56:51.121Z,17.93
2018-09-24T01:57:22.257Z,18.23
2018-09-24T01:57:53.425Z,19.50
2018-09-24T01:58:24.584Z,20.05
2018-09-24T01:58:55.807Z,18.98
2018-09-24T01:59:26.992Z,19.00
2018-09-24T01:59:58.155Z,19.10
2018-09-24T02:00:29.275Z,18.23
2018-09-24T02:01:00.488Z,19.67
2018-09-24T02:01:31.658Z,18.85
2018-09-24T02:02:02.780Z,19.12
2018-09-24T02:02:33.910Z,18.85
2018-09-24T02:03:05.044Z,17.97
2018-09-24T02:03:36.161Z,18.93
2018-09-24T02:04:07.351Z,19.27
2018-09-24T02:04:38.479Z,18.50
2018-09-24T02:05:09.587Z,18.97
2018-09-24T02:05:40.759Z,19.10
2018-09-24T02:06:11.869Z,17.98
2018-09-24T02:06:42.988Z,18.57
2018-09-24T02:07:14.104Z,18.92
2018-09-24T02:07:45.278Z,18.25
2018-09-24T02:08:16.404Z,18.52
2018-09-24T02:08:47.522Z,20.00
2018-09-24T02:09:18.680Z,18.97
2018-09-24T02:09:49.791Z,19.70
2018-09-24T02:10:20.897Z,19.60
2018-09-24T02:10:52.002Z,18.00
2018-09-24T02:11:23.121Z,18.55
2018-09-24T02:11:54.252Z,19.83
2018-09-24T02:12:25.374Z,18.73
2018-09-24T02:12:56.494Z,19.12
2018-09-24T02:13:27.633Z,19.73
2018-09-24T02:13:58.798Z,19.40
2018-09-24T02:14:30.869Z,19.42
2018-09-24T02:15:01.994Z,19.85
2018-09-24T02:15:33.153Z,19.77
2018-09-24T02:16:04.295Z,18.60
2018-09-24T02:16:35.422Z,19.57
2018-09-24T02:17:06.542Z,19.55
2018-09-24T02:17:37.703Z,19.50
2018-09-24T02:18:08.857Z,19.67
2018-09-24T02:18:39.964Z,19.90
2018-09-24T02:19:11.184Z,20.17
2018-09-24T02:19:42.362Z,20.20
2018-09-24T02:20:13.467Z,19.60
2018-09-24T02:20:44.590Z,19.40
2018-09-24T02:21:15.709Z,18.98
2018-09-24T02:21:46.828Z,20.30
2018-09-24T02:22:17.936Z,20.92
2018-09-24T02:22:49.125Z,17.95
2018-09-24T02:23:20.241Z,17.87
2018-09-24T02:23:51.345Z,19.50
2018-09-24T02:24:22.507Z,17.48
2018-09-24T02:24:53.660Z,19.70
2018-09-24T02:25:24.838Z,19.13
2018-09-24T02:25:55.982Z,18.62
2018-09-24T02:26:27.120Z,18.45
2018-09-24T02:26:58.248Z,19.60
2018-09-24T02:27:29.379Z,19.30
2018-09-24T02:28:00.503Z,20.30
2018-09-24T02:28:31.651Z,19.50
2018-09-24T02:29:02.774Z,18.87
2018-09-24T02:29:33.888Z,20.00
2018-09-24T02:30:05.123Z,19.48
2018-09-24T02:30:36.276Z,19.53
2018-09-24T02:31:07.395Z,18.80
2018-09-24T02:31:38.513Z,19.77
2018-09-24T02:32:09.625Z,19.65
2018-09-24T02:32:40.756Z,19.35
2018-09-24T02:33:11.876Z,19.95
2018-09-24T02:33:42.991Z,19.27
2018-09-24T02:34:14.180Z,19.57
2018-09-24T02:34:45.327Z,19.65
2018-09-24T02:35:16.507Z,20.08
2018-09-24T02:35:47.612Z,18.10
2018-09-24T02:36:18.800Z,18.60
2018-09-24T02:36:49.939Z,19.15
2018-09-24T02:37:21.037Z,18.17
2018-09-24T02:37:52.146Z,19.15
2018-09-24T02:38:23.269Z,19.85
2018-09-24T02:38:54.415Z,20.02
2018-09-24T02:39:25.527Z,18.62
2018-09-24T02:39:56.656Z,19.80
2018-09-24T02:40:27.798Z,19.30
2018-09-24T02:40:58.890Z,20.05
2018-09-24T02:41:30.042Z,19.85
2018-09-24T02:42:01.158Z,20.17
2018-09-24T02:42:32.336Z,19.73
2018-09-24T02:43:03.482Z,18.87
2018-09-24T02:43:34.653Z,19.77
2018-09-24T02:44:05.766Z,19.62
2018-09-24T02:44:36.885Z,19.87
2018-09-24T02:45:07.993Z,19.00
2018-09-24T02:45:39.160Z,19.50
2018-09-24T02:46:10.306Z,20.27
2018-09-24T02:46:41.454Z,18.82
2018-09-24T02:47:12.588Z,19.77
2018-09-24T02:47:43.731Z,19.52
2018-09-24T02:48:14.842Z,19.90
2018-09-24T02:48:45.966Z,18.87
2018-09-24T02:49:17.081Z,20.25
2018-09-24T02:49:48.196Z,20.35
2018-09-24T02:50:19.314Z,19.35
2018-09-24T02:50:50.424Z,19.80
2018-09-24T02:51:21.566Z,19.60
2018-09-24T02:51:52.796Z,19.98
2018-09-24T02:52:23.908Z,21.30
2018-09-24T02:52:55.080Z,20.00
2018-09-24T02:53:26.256Z,19.60
2018-09-24T02:53:57.373Z,18.95
2018-09-24T02:54:28.500Z,19.60
2018-09-24T02:54:59.616Z,18.70
2018-09-24T02:55:30.848Z,19.25
2018-09-24T02:56:01.957Z,20.72
2018-09-24T02:56:33.112Z,19.65
2018-09-24T02:57:04.248Z,19.40
2018-09-24T02:57:35.382Z,20.30
2018-09-24T02:58:06.485Z,19.27
2018-09-24T02:58:37.610Z,20.95
2018-09-24T02:59:08.748Z,20.97
2018-09-24T02:59:39.869Z,20.10
2018-09-24T03:00:11.066Z,21.65
2018-09-24T03:00:42.184Z,21.57
2018-09-24T03:01:13.344Z,19.73
2018-09-24T03:01:44.421Z,20.62
2018-09-24T03:02:15.591Z,21.77
2018-09-24T03:02:46.701Z,20.80
2018-09-24T03:03:17.826Z,20.68
2018-09-24T03:03:49.000Z,20.82
2018-09-24T03:04:20.126Z,21.25
2018-09-24T03:04:51.243Z,19.85
2018-09-24T03:05:22.475Z,20.55
2018-09-24T03:05:53.610Z,20.10
2018-09-24T03:06:24.735Z,21.00
2018-09-24T03:06:55.907Z,20.60
2018-09-24T03:07:27.050Z,20.85
2018-09-24T03:07:58.182Z,22.73
2018-09-24T03:08:29.298Z,21.57
2018-09-24T03:09:00.480Z,20.62
2018-09-24T03:09:31.670Z,21.40
2018-09-24T03:10:02.848Z,21.35
2018-09-24T03:10:33.970Z,21.45
2018-09-24T03:11:05.140Z,20.52
2018-09-24T03:11:36.293Z,18.77
2018-09-24T03:12:07.405Z,19.80
2018-09-24T03:12:38.527Z,20.40
2018-09-24T03:13:09.652Z,19.85
2018-09-24T03:13:40.771Z,20.30
2018-09-24T03:14:11.943Z,19.98
2018-09-24T03:14:43.075Z,21.17
2018-09-24T03:15:14.311Z,19.98
2018-09-24T03:15:45.443Z,19.92
2018-09-24T03:16:16.562Z,21.05
2018-09-24T03:16:47.665Z,20.52
2018-09-24T03:17:18.773Z,21.27
2018-09-24T03:17:49.925Z,21.75
2018-09-24T03:18:21.040Z,21.90
2018-09-24T03:18:52.170Z,22.15
2018-09-24T03:19:23.351Z,21.02
2018-09-24T03:19:54.532Z,21.50
2018-09-24T03:20:25.671Z,22.02
2018-09-24T03:20:56.785Z,21.60
2018-09-24T03:21:27.950Z,21.17
2018-09-24T03:21:59.153Z,23.52
2018-09-24T03:22:30.356Z,20.72
2018-09-24T03:23:01.490Z,22.75
2018-09-24T03:23:32.683Z,22.13
2018-09-24T03:24:03.801Z,22.60
2018-09-24T03:24:34.943Z,21.57
2018-09-24T03:25:06.079Z,22.13
2018-09-24T03:25:37.191Z,22.22
2018-09-24T03:26:08.365Z,22.25
2018-09-24T03:26:39.540Z,24.02
2018-09-24T03:27:10.791Z,22.32
2018-09-24T03:27:41.908Z,21.65
2018-09-24T03:28:13.029Z,22.20
2018-09-24T03:28:44.143Z,21.87
2018-09-24T03:29:15.252Z,22.22
2018-09-24T03:29:46.404Z,21.75
2018-09-24T03:30:17.536Z,21.80
2018-09-24T03:30:48.679Z,21.45
2018-09-24T03:31:19.800Z,21.57
2018-09-24T03:31:50.970Z,22.75
2018-09-24T03:32:22.122Z,21.33
2018-09-24T03:32:53.233Z,23.07
2018-09-24T03:33:24.357Z,22.65
2018-09-24T03:33:55.551Z,23.30
2018-09-24T03:34:26.671Z,24.25
2018-09-24T03:34:57.807Z,23.15
2018-09-24T03:35:28.961Z,23.12
2018-09-24T03:36:00.087Z,24.05
2018-09-24T03:36:31.196Z,23.50
2018-09-24T03:37:02.353Z,24.10
2018-09-24T03:37:33.514Z,24.60
2018-09-24T03:38:04.656Z,24.15
2018-09-24T03:38:35.783Z,24.27
2018-09-24T03:39:06.957Z,24.85
2018-09-24T03:39:38.090Z,24.72
2018-09-24T03:40:09.198Z,24.27
2018-09-24T03:40:40.312Z,24.63
2018-09-24T03:41:11.466Z,24.95
2018-09-24T03:41:42.612Z,24.12
2018-09-24T03:42:13.733Z,26.42
2018-09-24T03:42:44.847Z,25.35
2018-09-24T03:43:16.009Z,26.12
2018-09-24T03:43:47.101Z,25.82
2018-09-24T03:44:18.199Z,27.40
2018-09-24T03:44:49.311Z,25.05
2018-09-24T03:45:20.428Z,26.15
2018-09-24T03:45:51.624Z,27.17
2018-09-24T03:46:22.726Z,27.32
2018-09-24T03:46:53.877Z,27.27
2018-09-24T03:47:25.043Z,26.73
2018-09-24T03:47:56.155Z,27.40
2018-09-24T03:48:27.389Z,27.20
2018-09-24T03:48:58.546Z,27.75
2018-09-24T03:49:29.668Z,27.98
2018-09-24T03:50:00.836Z,28.23
2018-09-24T03:50:31.967Z,27.55
2018-09-24T03:51:03.078Z,27.87
2018-09-24T03:51:34.174Z,28.38
2018-09-24T03:52:05.272Z,29.75
2018-09-24T03:52:36.377Z,28.45
2018-09-24T03:53:07.495Z,27.40
2018-09-24T03:53:38.719Z,28.62
2018-09-24T03:54:09.837Z,28.75
2018-09-24T03:54:40.955Z,28.70
2018-09-24T03:55:12.173Z,28.38
2018-09-24T03:55:43.364Z,28.47
2018-09-24T03:56:14.568Z,30.43
2018-09-24T03:56:45.684Z,29.48
2018-09-24T03:57:16.798Z,32.08
2018-09-24T03:57:47.908Z,29.72
2018-09-24T03:58:19.037Z,28.77
2018-09-24T03:58:50.216Z,30.65
2018-09-24T03:59:21.322Z,30.45
2018-09-24T03:59:52.492Z,29.87
2018-09-24T04:00:23.595Z,30.97
2018-09-24T04:00:54.717Z,31.23
2018-09-24T04:01:25.857Z,32.15
2018-09-24T04:01:56.968Z,31.57
2018-09-24T04:02:28.098Z,32.55
2018-09-24T04:02:59.210Z,31.70
2018-09-24T04:03:30.322Z,30.57
2018-09-24T04:04:01.470Z,31.42
2018-09-24T04:04:32.617Z,31.80
2018-09-24T04:05:03.737Z,31.07
2018-09-24T04:05:34.870Z,30.65
2018-09-24T04:06:06.031Z,30.80
2018-09-24T04:06:37.158Z,30.30
2018-09-24T04:07:08.270Z,31.00
2018-09-24T04:07:39.389Z,30.90
2018-09-24T04:08:10.511Z,30.72
2018-09-24T04:08:41.704Z,31.17
2018-09-24T04:09:12.848Z,30.85
2018-09-24T04:09:44.048Z,31.10
2018-09-24T04:10:15.190Z,32.20
2018-09-24T04:10:46.333Z,31.12
2018-09-24T04:11:17.438Z,31.37
2018-09-24T04:11:48.566Z,31.50
2018-09-24T04:12:19.734Z,32.75
2018-09-24T04:12:50.852Z,32.58
2018-09-24T04:13:21.972Z,31.50
2018-09-24T04:13:53.111Z,31.50
2018-09-24T04:14:24.250Z,32.08
2018-09-24T04:14:55.362Z,33.42
2018-09-24T04:15:26.518Z,32.73
2018-09-24T04:15:57.631Z,33.48
2018-09-24T04:16:28.755Z,32.63
2018-09-24T04:16:59.876Z,31.52
2018-09-24T04:17:30.980Z,30.95
2018-09-24T04:18:02.137Z,30.92
2018-09-24T04:18:33.247Z,32.03
2018-09-24T04:19:04.365Z,31.15
2018-09-24T04:19:35.562Z,32.73
2018-09-24T04:20:06.671Z,32.63
2018-09-24T04:20:37.817Z,32.90
2018-09-24T04:21:08.948Z,34.27
2018-09-24T04:21:40.049Z,34.23
2018-09-24T04:22:11.172Z,32.05
2018-09-24T04:22:42.279Z,33.83
2018-09-24T04:23:13.389Z,32.35
2018-09-24T04:23:44.486Z,33.23
2018-09-24T04:24:15.582Z,33.02
2018-09-24T04:24:46.752Z,32.83
2018-09-24T04:25:17.874Z,32.65
2018-09-24T04:25:49.014Z,31.97
2018-09-24T04:26:20.227Z,32.13
2018-09-24T04:26:51.276Z,31.68
2018-09-24T04:27:22.379Z,32.60
2018-09-24T04:27:53.482Z,31.40
2018-09-24T04:28:24.641Z,32.05
2018-09-24T04:28:55.779Z,32.28
2018-09-24T04:29:26.939Z,31.02
2018-09-24T04:29:58.076Z,30.08
2018-09-24T04:30:29.198Z,30.80
2018-09-24T04:31:00.324Z,31.50
2018-09-24T04:31:31.443Z,30.95
2018-09-24T04:32:02.620Z,31.07
2018-09-24T04:32:33.728Z,29.82
2018-09-24T04:33:04.863Z,29.00
2018-09-24T04:33:35.997Z,29.90
2018-09-24T04:34:07.167Z,28.17
2018-09-24T04:34:38.320Z,28.77
2018-09-24T04:35:10.344Z,28.10
2018-09-24T04:35:41.486Z,28.67
2018-09-24T04:36:12.618Z,26.73
2018-09-24T04:36:43.737Z,29.00
2018-09-24T04:37:14.849Z,28.02
2018-09-24T04:37:45.959Z,28.92
2018-09-24T04:38:17.074Z,29.42
2018-09-24T04:38:48.197Z,28.35
2018-09-24T04:39:19.372Z,29.42
2018-09-24T04:39:50.541Z,29.05
2018-09-24T04:40:21.639Z,28.87
2018-09-24T04:40:52.755Z,28.87
2018-09-24T04:41:23.909Z,28.10
2018-09-24T04:41:55.046Z,28.95
2018-09-24T04:42:26.217Z,28.07
2018-09-24T04:42:57.373Z,28.07
2018-09-24T04:43:28.482Z,28.07
2018-09-24T04:43:59.606Z,28.40
2018-09-24T04:44:30.786Z,27.95
2018-09-24T04:45:01.899Z,27.67
2018-09-24T04:45:33.095Z,27.73
2018-09-24T04:46:04.229Z,27.93
2018-09-24T04:46:35.345Z,27.50
2018-09-24T04:47:06.462Z,27.15
2018-09-24T04:47:37.577Z,26.97
2018-09-24T04:48:08.721Z,27.32
2018-09-24T04:48:39.849Z,27.22
2018-09-24T04:49:11.006Z,26.80
2018-09-24T04:49:42.128Z,27.25
2018-09-24T04:50:13.273Z,28.15
2018-09-24T04:50:44.459Z,29.60
2018-09-24T04:51:15.583Z,28.85
2018-09-24T04:51:46.745Z,28.73
2018-09-24T04:52:17.863Z,29.18
2018-09-24T04:52:49.059Z,28.85
2018-09-24T04:53:20.220Z,29.55
2018-09-24T04:53:51.381Z,27.82
2018-09-24T04:54:22.509Z,28.50
2018-09-24T04:54:53.610Z,27.20
2018-09-24T04:55:24.752Z,27.75
2018-09-24T04:55:55.879Z,28.25
2018-09-24T04:56:26.992Z,29.10
2018-09-24T04:56:58.090Z,28.20
2018-09-24T04:57:29.237Z,28.40
2018-09-24T04:58:00.361Z,27.75
2018-09-24T04:58:31.486Z,27.48
2018-09-24T04:59:02.618Z,28.32
2018-09-24T04:59:33.723Z,28.95
2018-09-24T05:00:04.867Z,27.58
2018-09-24T05:00:36.047Z,27.15
2018-09-24T05:01:07.175Z,26.97
2018-09-24T05:01:38.346Z,28.12
2018-09-24T05:02:09.481Z,26.80
2018-09-24T05:02:40.600Z,29.02
2018-09-24T05:03:11.706Z,27.82
2018-09-24T05:03:42.871Z,27.80
2018-09-24T05:04:13.982Z,29.05
2018-09-24T05:04:45.157Z,27.50
2018-09-24T05:05:16.303Z,28.42
2018-09-24T05:05:47.421Z,27.65
2018-09-24T05:06:18.529Z,26.68
2018-09-24T05:06:49.693Z,26.80
2018-09-24T05:07:20.886Z,28.27
2018-09-24T05:07:52.010Z,27.75
2018-09-24T05:08:23.151Z,27.22
2018-09-24T05:08:54.278Z,27.45
2018-09-24T05:09:25.450Z,27.82
2018-09-24T05:09:56.564Z,26.20
2018-09-24T05:10:27.734Z,26.17
2018-09-24T05:10:58.882Z,27.30
2018-09-24T05:11:30.014Z,27.27
2018-09-24T05:12:01.151Z,26.70
2018-09-24T05:12:32.272Z,27.42
2018-09-24T05:13:03.376Z,27.67
2018-09-24T05:13:34.478Z,27.80
2018-09-24T05:14:05.594Z,26.75
2018-09-24T05:14:36.698Z,27.65
2018-09-24T05:15:07.803Z,28.30
2018-09-24T05:15:38.938Z,27.07
2018-09-24T05:16:10.170Z,27.60
2018-09-24T05:16:41.372Z,26.95
2018-09-24T05:17:12.491Z,27.25
2018-09-24T05:17:43.691Z,27.75
2018-09-24T05:18:14.807Z,27.67
2018-09-24T05:18:45.919Z,27.27
2018-09-24T05:19:17.044Z,28.30
2018-09-24T05:19:48.215Z,27.95
2018-09-24T05:20:19.368Z,27.80
2018-09-24T05:20:50.580Z,29.18
2018-09-24T05:21:21.713Z,29.10
2018-09-24T05:21:52.851Z,28.62
2018-09-24T05:22:23.991Z,30.40
2018-09-24T05:22:55.200Z,30.50
2018-09-24T05:23:26.325Z,30.27
2018-09-24T05:23:57.439Z,29.35
2018-09-24T05:24:28.565Z,30.62
2018-09-24T05:24:59.711Z,29.37
2018-09-24T05:25:30.901Z,29.00
2018-09-24T05:26:02.010Z,29.77
2018-09-24T05:26:33.132Z,30.60
2018-09-24T05:27:04.269Z,30.20
2018-09-24T05:27:35.382Z,30.75
2018-09-24T05:28:06.588Z,29.12
2018-09-24T05:28:37.706Z,29.15
2018-09-24T05:29:08.825Z,29.67
2018-09-24T05:29:39.984Z,31.35
2018-09-24T05:30:11.095Z,32.33
2018-09-24T05:30:42.208Z,30.27
2018-09-24T05:31:13.322Z,31.00
2018-09-24T05:31:44.426Z,31.10
2018-09-24T05:32:15.624Z,31.00
2018-09-24T05:32:46.791Z,32.25
2018-09-24T05:33:17.917Z,31.17
2018-09-24T05:33:49.092Z,34.40
2018-09-24T05:34:20.371Z,34.95
2018-09-24T05:34:51.472Z,35.75
2018-09-24T05:35:22.637Z,36.28
2018-09-24T05:35:53.834Z,35.30
2018-09-24T05:36:25.035Z,34.33
2018-09-24T05:36:56.152Z,36.00
2018-09-24T05:37:27.299Z,35.23
2018-09-24T05:37:58.419Z,36.90
2018-09-24T05:38:29.536Z,36.28
2018-09-24T05:39:00.641Z,34.92
2018-09-24T05:39:31.745Z,35.30
2018-09-24T05:40:02.868Z,35.35
2018-09-24T05:40:33.986Z,35.23
2018-09-24T05:41:05.122Z,35.33
2018-09-24T05:41:36.239Z,35.23
2018-09-24T05:42:07.373Z,36.08
2018-09-24T05:42:38.611Z,34.15
2018-09-24T05:43:09.799Z,34.23
2018-09-24T05:43:40.999Z,33.40
2018-09-24T05:44:12.154Z,34.05
2018-09-24T05:44:43.266Z,33.30
2018-09-24T05:45:14.374Z,33.67
2018-09-24T05:45:45.486Z,32.35
2018-09-24T05:46:16.614Z,33.50
2018-09-24T05:46:47.782Z,33.28
2018-09-24T05:47:19.012Z,33.40
2018-09-24T05:47:50.161Z,32.60
2018-09-24T05:48:21.281Z,33.02
2018-09-24T05:48:52.423Z,31.20
2018-09-24T05:49:23.544Z,32.33
2018-09-24T05:49:54.658Z,32.80
2018-09-24T05:50:25.787Z,33.20
2018-09-24T05:50:56.898Z,32.98
2018-09-24T05:51:28.050Z,32.90
2018-09-24T05:51:59.237Z,32.55
2018-09-24T05:52:30.354Z,33.08
2018-09-24T05:53:01.526Z,34.00
2018-09-24T05:53:32.664Z,33.18
2018-09-24T05:54:03.795Z,33.50
2018-09-24T05:54:34.936Z,32.93
2018-09-24T05:55:06.057Z,32.77
2018-09-24T05:55:37.153Z,33.57
2018-09-24T05:56:08.271Z,34.00
2018-09-24T05:56:39.385Z,33.23
2018-09-24T05:57:10.531Z,33.13
2018-09-24T05:57:41.629Z,32.23
2018-09-24T05:58:12.730Z,33.60
2018-09-24T05:58:43.851Z,33.97
2018-09-24T05:59:14.969Z,31.87
2018-09-24T05:59:46.123Z,32.83
2018-09-24T06:00:17.231Z,33.93
2018-09-24T06:00:48.357Z,33.30
2018-09-24T06:01:19.453Z,34.40
2018-09-24T06:01:50.564Z,33.67
2018-09-24T06:02:21.721Z,34.77
2018-09-24T06:02:52.826Z,34.20
2018-09-24T06:03:24.023Z,32.97
2018-09-24T06:03:55.133Z,33.70
2018-09-24T06:04:26.243Z,34.30
2018-09-24T06:04:57.361Z,34.07
2018-09-24T06:05:28.504Z,33.80
2018-09-24T06:05:59.613Z,35.23
2018-09-24T06:06:30.732Z,36.40
2018-09-24T06:07:01.856Z,33.43
2018-09-24T06:07:33.033Z,35.45
2018-09-24T06:08:04.131Z,35.70
2018-09-24T06:08:35.266Z,34.80
2018-09-24T06:09:06.366Z,33.50
2018-09-24T06:09:37.520Z,33.57
2018-09-24T06:10:08.671Z,33.13
2018-09-24T06:10:39.826Z,33.80
2018-09-24T06:11:10.910Z,32.77
2018-09-24T06:11:42.020Z,33.03
2018-09-24T06:12:13.126Z,32.27
2018-09-24T06:12:44.249Z,33.03
2018-09-24T06:13:15.401Z,33.20
2018-09-24T06:13:46.622Z,33.67
2018-09-24T06:14:17.663Z,33.50
2018-09-24T06:14:48.796Z,33.53
2018-09-24T06:15:19.899Z,33.00
2018-09-24T06:15:51.004Z,33.27
2018-09-24T06:16:22.109Z,33.63
2018-09-24T06:16:53.261Z,33.03
2018-09-24T06:17:24.362Z,32.53
2018-09-24T06:17:55.462Z,32.97
2018-09-24T06:18:26.590Z,33.93
2018-09-24T06:18:57.719Z,32.97
2018-09-24T06:19:28.909Z,31.93
2018-09-24T06:20:00.085Z,33.87
2018-09-24T06:20:31.190Z,33.47
2018-09-24T06:21:02.331Z,32.70
2018-09-24T06:21:33.431Z,33.47
2018-09-24T06:22:04.541Z,32.07
2018-09-24T06:22:35.635Z,31.53
2018-09-24T06:23:06.741Z,30.40
2018-09-24T06:23:37.857Z,31.03
2018-09-24T06:24:08.965Z,31.70
2018-09-24T06:24:40.067Z,31.90
2018-09-24T06:25:11.166Z,31.70
2018-09-24T06:25:42.267Z,31.93
2018-09-24T06:26:13.406Z,30.63
2018-09-24T06:26:44.520Z,29.47
2018-09-24T06:27:15.642Z,30.80
2018-09-24T06:27:46.804Z,30.97
2018-09-24T06:28:17.982Z,31.70
2018-09-24T06:28:49.097Z,31.07
2018-09-24T06:29:20.227Z,31.23
2018-09-24T06:29:51.329Z,31.87
2018-09-24T06:30:22.453Z,29.33
2018-09-24T06:30:53.577Z,32.27
2018-09-24T06:31:24.717Z,30.03
2018-09-24T06:31:55.819Z,31.27
2018-09-24T06:32:26.932Z,30.00
2018-09-24T06:32:58.030Z,29.43
2018-09-24T06:33:29.135Z,29.10
2018-09-24T06:34:00.235Z,29.23
2018-09-24T06:34:31.338Z,28.97
2018-09-24T06:35:02.460Z,28.77
2018-09-24T06:35:33.600Z,31.23
2018-09-24T06:36:04.702Z,31.00
2018-09-24T06:36:35.859Z,29.20
2018-09-24T06:37:07.051Z,28.93
2018-09-24T06:37:38.224Z,29.53
2018-09-24T06:38:09.341Z,29.57
2018-09-24T06:38:40.505Z,28.10
2018-09-24T06:39:11.655Z,29.17
2018-09-24T06:39:42.803Z,27.93
2018-09-24T06:40:13.951Z,28.43
2018-09-24T06:40:45.066Z,29.50